Time;durP1;ratioP1;P1;durP2;ratioP2;P2;SDS_P1;SDS_P2;PMS_P1;PMS_P2;Temp;Humidity;BMP_temperature;BMP_pressure;BME280_temperature;BME280_humidity;BME280_pressure;Samples;Min_cycle;Max_cycle;Signal;HPM_P1;HPM_P2
2022/12/19 00:00:22;;;;;;;75.38;34.25;;;-3.40;99.90;;;;;;2104813;28;20032;-73
2022/12/19 00:01:32;;;;;;;72.65;33.40;;;-3.30;99.90;;;;;;2105052;28;20657;-72
2022/12/19 00:02:33;;;;;;;68.82;32.88;;;-3.30;99.90;;;;;;2102204;28;20028;-73
2022/12/19 00:03:34;;;;;;;72.55;32.83;;;-3.30;99.90;;;;;;2105239;28;20032;-73
2022/12/19 00:04:35;;;;;;;79.35;36.88;;;-3.30;99.90;;;;;;2104512;28;20028;-73
2022/12/19 00:05:38;;;;;;;73.32;34.35;;;-3.30;99.90;;;;;;2104794;28;20062;-73
2022/12/19 00:06:38;;;;;;;71.20;33.90;;;-3.30;99.90;;;;;;2105264;28;20541;-73
2022/12/19 00:07:39;;;;;;;71.78;33.13;;;-3.30;99.90;;;;;;2104877;28;20020;-72
2022/12/19 00:08:44;;;;;;;74.13;33.83;;;-3.40;99.90;;;;;;2105182;28;20024;-72
2022/12/19 00:09:55;;;;;;;76.00;34.75;;;-3.40;99.90;;;;;;2104709;28;20020;-72
2022/12/19 00:10:58;;;;;;;73.53;33.28;;;-3.40;99.90;;;;;;2091779;28;20033;-73
2022/12/19 00:11:59;;;;;;;72.97;33.83;;;-3.40;99.90;;;;;;2096466;28;20096;-72
2022/12/19 00:13:00;;;;;;;71.38;33.03;;;-3.40;99.90;;;;;;2096925;28;20470;-72
2022/12/19 00:14:00;;;;;;;68.15;32.83;;;-3.30;99.90;;;;;;2096867;28;20067;-73
2022/12/19 00:15:01;;;;;;;73.60;34.42;;;-3.30;99.90;;;;;;2096999;28;20031;-72
2022/12/19 00:16:05;;;;;;;72.75;34.10;;;-3.40;99.90;;;;;;2096147;28;20095;-73
2022/12/19 00:17:05;;;;;;;71.03;33.65;;;-3.40;99.90;;;;;;2096923;28;20023;-72
2022/12/19 00:18:06;;;;;;;75.60;34.17;;;-3.40;99.90;;;;;;2097696;28;20052;-73
2022/12/19 00:19:08;;;;;;;72.15;33.97;;;-3.40;99.90;;;;;;2097973;28;20024;-72
2022/12/19 00:20:10;;;;;;;73.00;33.40;;;-3.40;99.90;;;;;;2097597;28;20036;-72
2022/12/19 00:21:13;;;;;;;68.72;32.42;;;-3.40;99.90;;;;;;2096865;28;20033;-72
2022/12/19 00:22:14;;;;;;;71.93;34.13;;;-3.40;99.90;;;;;;2097879;28;20082;-72
2022/12/19 00:23:15;;;;;;;75.75;34.28;;;-3.40;99.90;;;;;;2098048;28;20169;-72
2022/12/19 00:24:15;;;;;;;74.97;34.42;;;-3.40;99.90;;;;;;2098823;28;20055;-72
2022/12/19 00:25:16;;;;;;;73.15;33.53;;;-3.40;99.90;;;;;;2106169;28;20630;-73
2022/12/19 00:26:23;;;;;;;68.10;32.17;;;-3.40;99.90;;;;;;2107379;28;20032;-73
2022/12/19 00:27:23;;;;;;;70.32;33.33;;;-3.40;99.90;;;;;;2107360;28;20016;-72
2022/12/19 00:28:24;;;;;;;69.45;32.95;;;-3.40;99.90;;;;;;2106613;28;20053;-72
2022/12/19 00:29:25;;;;;;;69.80;32.33;;;-3.40;99.90;;;;;;2105499;28;20024;-72
2022/12/19 00:30:25;;;;;;;68.50;32.63;;;-3.40;99.90;;;;;;2106090;28;20606;-72
2022/12/19 00:31:28;;;;;;;72.78;33.35;;;-3.40;99.90;;;;;;2105602;28;20100;-72
2022/12/19 00:32:29;;;;;;;74.35;33.80;;;-3.40;99.90;;;;;;2101901;28;20424;-72
2022/12/19 00:33:30;;;;;;;71.90;32.88;;;-3.40;99.90;;;;;;2097378;28;20060;-72
2022/12/19 00:34:31;;;;;;;71.63;32.65;;;-3.50;99.90;;;;;;2105467;28;20028;-72
2022/12/19 00:35:31;;;;;;;69.25;32.67;;;-3.40;99.90;;;;;;2114000;28;20572;-72
2022/12/19 00:36:33;;;;;;;68.05;32.67;;;-3.40;99.90;;;;;;2113259;28;20579;-72
2022/12/19 00:37:34;;;;;;;65.63;32.08;;;-3.40;99.90;;;;;;2113675;28;20077;-72
2022/12/19 00:38:37;;;;;;;69.07;32.58;;;-3.40;99.90;;;;;;2112857;28;20190;-72
2022/12/19 00:39:38;;;;;;;68.30;32.10;;;-3.40;99.90;;;;;;2112665;28;20028;-72
2022/12/19 00:40:40;;;;;;;69.18;31.80;;;-3.50;99.90;;;;;;2111937;28;20027;-72
2022/12/19 00:41:41;;;;;;;68.20;32.42;;;-3.50;99.90;;;;;;2112939;28;20035;-73
2022/12/19 00:42:42;;;;;;;69.57;31.55;;;-3.50;99.90;;;;;;2113460;28;20015;-73
2022/12/19 00:43:43;;;;;;;68.90;31.88;;;-3.50;99.90;;;;;;2113626;28;20080;-73
2022/12/19 00:44:44;;;;;;;67.65;31.65;;;-3.50;99.90;;;;;;2112851;28;20535;-73
2022/12/19 00:45:44;;;;;;;66.13;31.20;;;-3.50;99.90;;;;;;2104565;28;20111;-73
2022/12/19 00:46:45;;;;;;;68.18;31.17;;;-3.50;99.90;;;;;;2104406;28;20032;-73
2022/12/19 00:47:47;;;;;;;70.28;31.50;;;-3.50;99.90;;;;;;2112686;28;20016;-73
2022/12/19 00:48:51;;;;;;;68.20;30.70;;;-3.50;99.90;;;;;;2113582;28;20552;-72
2022/12/19 00:49:51;;;;;;;69.60;31.67;;;-3.50;99.90;;;;;;2113014;28;20062;-71
2022/12/19 00:51:02;;;;;;;68.97;31.50;;;-3.50;99.90;;;;;;2104363;28;20047;-71
2022/12/19 00:52:03;;;;;;;68.90;30.75;;;-3.50;99.90;;;;;;2113206;28;20370;-73
2022/12/19 00:53:04;;;;;;;65.70;30.60;;;-3.60;99.90;;;;;;2112995;28;20423;-72
2022/12/19 00:54:08;;;;;;;63.88;30.75;;;-3.60;99.90;;;;;;2112978;28;20031;-72
2022/12/19 00:55:09;;;;;;;65.47;30.52;;;-3.50;99.90;;;;;;2104896;28;20027;-72
2022/12/19 00:56:18;;;;;;;68.95;31.88;;;-3.60;99.90;;;;;;2105554;28;20110;-72
2022/12/19 00:57:19;;;;;;;67.88;30.63;;;-3.60;99.90;;;;;;2114484;28;20149;-73
2022/12/19 00:58:20;;;;;;;68.07;30.20;;;-3.60;99.90;;;;;;2114842;28;20027;-73
2022/12/19 00:59:22;;;;;;;63.63;29.83;;;-3.60;99.90;;;;;;2105749;28;20034;-73
2022/12/19 01:00:22;;;;;;;65.07;29.88;;;-3.60;99.90;;;;;;2105040;28;20027;-73
2022/12/19 01:01:29;;;;;;;66.80;30.48;;;-3.60;99.90;;;;;;2113294;28;20027;-72
2022/12/19 01:02:30;;;;;;;68.25;30.70;;;-3.50;99.90;;;;;;2113694;28;20090;-73
2022/12/19 01:03:36;;;;;;;63.85;29.42;;;-3.60;99.90;;;;;;2113715;28;20020;-73
2022/12/19 01:04:37;;;;;;;68.78;30.50;;;-3.50;99.90;;;;;;2113742;28;20027;-73
2022/12/19 01:05:38;;;;;;;67.07;31.02;;;-3.60;99.90;;;;;;2113058;28;20137;-73
2022/12/19 01:06:38;;;;;;;64.25;29.17;;;-3.60;99.90;;;;;;2104801;28;20596;-72
2022/12/19 01:07:39;;;;;;;66.68;29.70;;;-3.60;99.90;;;;;;2114876;28;20110;-73
2022/12/19 01:08:40;;;;;;;68.13;30.98;;;-3.60;99.90;;;;;;2115717;28;20519;-73
2022/12/19 01:09:41;;;;;;;63.97;29.85;;;-3.60;99.90;;;;;;2108154;28;20039;-72
2022/12/19 01:10:47;;;;;;;65.78;29.95;;;-3.50;99.90;;;;;;2116484;28;20109;-73
2022/12/19 01:13:14;;;;;;;62.15;29.40;;;-3.60;99.90;;;;;;2099174;28;20048;-73
2022/12/19 01:14:15;;;;;;;66.82;30.23;;;-3.60;99.90;;;;;;2106770;28;20044;-73
2022/12/19 01:15:21;;;;;;;63.58;29.48;;;-3.70;99.90;;;;;;2100517;28;20036;-72
2022/12/19 01:16:22;;;;;;;70.50;31.42;;;-3.60;99.90;;;;;;2109127;28;20032;-73
2022/12/19 01:17:23;;;;;;;62.90;29.65;;;-3.60;99.90;;;;;;2107833;28;20209;-74
2022/12/19 01:18:27;;;;;;;68.03;30.00;;;-3.60;99.90;;;;;;2100796;28;20070;-74
2022/12/19 01:19:27;;;;;;;67.70;30.42;;;-3.60;99.90;;;;;;2100312;28;20033;-73
2022/12/19 01:20:28;;;;;;;69.75;31.15;;;-3.70;99.90;;;;;;2116481;28;20181;-73
2022/12/19 01:21:29;;;;;;;64.47;29.88;;;-3.60;99.90;;;;;;2101273;28;20050;-73
2022/12/19 01:22:29;;;;;;;70.18;30.55;;;-3.60;99.90;;;;;;2105004;28;20024;-73
2022/12/19 01:23:30;;;;;;;65.28;29.70;;;-3.60;99.90;;;;;;2099976;28;20040;-73
2022/12/19 01:24:31;;;;;;;68.28;30.52;;;-3.60;99.90;;;;;;2109282;28;20028;-73
2022/12/19 01:25:34;;;;;;;68.53;29.98;;;-3.70;99.90;;;;;;2108376;28;20028;-73
2022/12/19 01:26:34;;;;;;;70.68;31.27;;;-3.70;99.90;;;;;;2106604;28;20407;-74
2022/12/19 01:27:35;;;;;;;63.47;29.58;;;-3.70;99.90;;;;;;2110690;28;20016;-73
2022/12/19 01:28:36;;;;;;;64.20;29.95;;;-3.60;99.90;;;;;;2113535;27;20028;-73
2022/12/19 01:29:37;;;;;;;66.18;30.00;;;-3.70;99.90;;;;;;2112556;28;20035;-73
2022/12/19 01:30:39;;;;;;;67.18;30.27;;;-3.60;99.90;;;;;;2106075;28;20038;-73
2022/12/19 01:31:40;;;;;;;64.40;29.75;;;-3.70;99.90;;;;;;2104714;28;20040;-74
2022/12/19 01:32:40;;;;;;;65.20;29.77;;;-3.70;99.90;;;;;;2112989;28;20023;-72
2022/12/19 01:33:41;;;;;;;65.32;30.30;;;-3.70;99.90;;;;;;2112691;28;20123;-72
2022/12/19 01:34:42;;;;;;;65.07;30.13;;;-3.70;99.90;;;;;;2104332;28;20035;-72
2022/12/19 01:35:45;;;;;;;66.18;30.20;;;-3.70;99.90;;;;;;2112668;28;20023;-73
2022/12/19 01:36:46;;;;;;;66.20;29.80;;;-3.70;99.90;;;;;;2112590;28;20043;-74
2022/12/19 01:37:47;;;;;;;61.78;29.52;;;-3.60;99.90;;;;;;2103818;28;20259;-73
2022/12/19 01:38:50;;;;;;;65.95;29.95;;;-3.60;99.90;;;;;;2112549;28;20012;-73
2022/12/19 01:39:50;;;;;;;60.30;27.83;;;-3.60;99.90;;;;;;2112260;28;20125;-73
2022/12/19 01:40:53;;;;;;;65.03;29.20;;;-3.70;99.90;;;;;;2103846;28;20040;-73
2022/12/19 01:41:54;;;;;;;63.78;29.20;;;-3.60;99.90;;;;;;2112343;28;20569;-73
2022/12/19 01:42:55;;;;;;;65.75;29.58;;;-3.70;99.90;;;;;;2112678;28;20028;-73
2022/12/19 01:43:59;;;;;;;62.83;28.15;;;-3.60;99.90;;;;;;2112415;28;20386;-75
2022/12/19 01:45:09;;;;;;;63.42;28.85;;;-3.60;99.90;;;;;;2104621;28;20036;-73
2022/12/19 01:46:13;;;;;;;62.95;29.65;;;-3.60;99.90;;;;;;2112434;28;20024;-73
2022/12/19 01:47:14;;;;;;;65.18;28.95;;;-3.70;99.90;;;;;;2112667;28;20498;-73
2022/12/19 01:48:22;;;;;;;62.47;29.38;;;-3.70;99.90;;;;;;2113415;28;20121;-73
2022/12/19 01:49:30;;;;;;;60.05;27.67;;;-3.70;99.90;;;;;;2115680;28;20045;-73
2022/12/19 01:50:36;;;;;;;62.40;29.15;;;-3.70;99.90;;;;;;2114896;28;20043;-73
2022/12/19 01:51:42;;;;;;;66.22;28.98;;;-3.70;99.90;;;;;;2112951;28;20150;-73
2022/12/19 01:52:43;;;;;;;65.32;29.88;;;-3.70;99.90;;;;;;2113404;28;20659;-73
2022/12/19 01:53:49;;;;;;;61.97;28.88;;;-3.70;99.90;;;;;;2112555;28;20104;-73
2022/12/19 01:54:50;;;;;;;65.13;29.02;;;-3.70;99.90;;;;;;2104806;28;20032;-73
2022/12/19 01:55:51;;;;;;;65.45;29.98;;;-3.70;99.90;;;;;;2112369;28;20051;-73
2022/12/19 01:56:56;;;;;;;62.05;29.58;;;-3.70;99.90;;;;;;2112357;28;20027;-73
2022/12/19 01:58:00;;;;;;;63.20;29.13;;;-3.70;99.90;;;;;;2111808;28;20424;-73
2022/12/19 01:59:06;;;;;;;61.22;28.52;;;-3.80;99.90;;;;;;2104245;28;20369;-74
2022/12/19 02:00:11;;;;;;;59.72;27.27;;;-3.80;99.90;;;;;;2104857;28;20028;-73
2022/12/19 02:01:16;;;;;;;60.53;28.63;;;-3.80;99.90;;;;;;2104283;28;20032;-73
2022/12/19 02:02:23;;;;;;;59.17;27.60;;;-3.70;99.90;;;;;;2112253;28;20405;-73
2022/12/19 02:03:32;;;;;;;63.58;29.08;;;-3.70;99.90;;;;;;2104194;28;20032;-72
2022/12/19 02:04:33;;;;;;;57.30;26.88;;;-3.70;99.90;;;;;;2105334;28;20422;-73
2022/12/19 02:05:34;;;;;;;62.10;27.88;;;-3.70;99.90;;;;;;2112463;28;20484;-72
2022/12/19 02:06:37;;;;;;;62.17;28.23;;;-3.70;99.90;;;;;;2104129;28;20119;-72
2022/12/19 02:07:39;;;;;;;60.80;27.42;;;-3.70;99.90;;;;;;2112409;28;20051;-73
2022/12/19 02:08:41;;;;;;;58.65;27.52;;;-3.70;99.90;;;;;;2113257;28;20063;-72
2022/12/19 02:09:48;;;;;;;63.45;28.48;;;-3.70;99.90;;;;;;2112539;28;20031;-72
2022/12/19 02:10:50;;;;;;;59.10;27.33;;;-3.70;99.90;;;;;;2107070;28;20028;-72
2022/12/19 02:11:51;;;;;;;55.92;27.33;;;-3.60;99.90;;;;;;2100337;28;20567;-72
2022/12/19 02:12:52;;;;;;;55.60;26.98;;;-3.70;99.90;;;;;;2100797;28;20032;-74
2022/12/19 02:13:53;;;;;;;59.40;27.27;;;-3.70;99.90;;;;;;2097964;28;20070;-72
2022/12/19 02:14:57;;;;;;;56.97;26.90;;;-3.60;99.90;;;;;;2105885;28;20142;-73
2022/12/19 02:16:25;;;;;;;57.97;26.48;;;-3.60;99.90;;;;;;2105312;28;20097;-73
2022/12/19 02:17:49;;;;;;;57.70;26.17;;;-3.70;99.90;;;;;;2099610;28;20405;-73
2022/12/19 02:19:43;;;;;;;58.60;26.40;;;-3.70;99.90;;;;;;2095331;28;20032;-73
2022/12/19 02:20:50;;;;;;;57.30;24.42;;;-3.70;99.90;;;;;;2095033;28;20032;-73
2022/12/19 02:22:08;;;;;;;54.83;25.50;;;-3.70;99.90;;;;;;2091696;28;20025;-72
2022/12/19 02:23:41;;;;;;;56.75;24.88;;;-3.70;99.90;;;;;;2091961;28;20383;-73
2022/12/19 02:24:44;;;;;;;54.78;25.50;;;-3.70;99.90;;;;;;2103682;28;20062;-72
2022/12/19 02:26:29;;;;;;;54.53;25.42;;;-3.70;99.90;;;;;;2103892;28;20020;-73
2022/12/19 02:27:39;;;;;;;55.35;24.73;;;-3.70;99.90;;;;;;2104581;28;20039;-72
2022/12/19 02:29:22;;;;;;;57.42;25.45;;;-3.70;99.90;;;;;;2103900;28;20043;-73
2022/12/19 02:30:53;;;;;;;56.33;24.52;;;-3.70;99.90;;;;;;2100941;28;20118;-72
2022/12/19 02:32:00;;;;;;;55.15;25.17;;;-3.70;99.90;;;;;;2099835;28;20422;-73
2022/12/19 02:35:17;;;;;;;52.30;24.30;;;-3.70;99.90;;;;;;2104501;28;20028;-72
2022/12/19 02:36:24;;;;;;;52.25;23.85;;;-3.70;99.90;;;;;;2103661;28;20032;-72
2022/12/19 02:37:31;;;;;;;53.25;24.17;;;-3.70;99.90;;;;;;2096185;28;20497;-72
2022/12/19 02:38:50;;;;;;;53.30;23.70;;;-3.70;99.90;;;;;;2096535;28;20033;-71
2022/12/19 02:40:04;;;;;;;50.55;23.40;;;-3.80;99.90;;;;;;2097534;28;20035;-72
2022/12/19 02:41:13;;;;;;;53.00;23.88;;;-3.80;99.90;;;;;;2103648;28;20028;-72
2022/12/19 02:42:29;;;;;;;51.10;23.58;;;-3.70;99.90;;;;;;2096554;28;20415;-72
2022/12/19 02:43:35;;;;;;;53.42;23.75;;;-3.70;99.90;;;;;;2103671;28;20114;-72
2022/12/19 02:44:50;;;;;;;53.45;23.38;;;-3.70;99.90;;;;;;2103674;28;20081;-72
2022/12/19 02:45:51;;;;;;;49.95;23.65;;;-3.70;99.90;;;;;;2095280;28;20067;-72
2022/12/19 02:46:53;;;;;;;53.28;23.67;;;-3.70;99.90;;;;;;2087313;28;20024;-72
2022/12/19 02:48:00;;;;;;;52.53;24.52;;;-3.70;99.90;;;;;;2096226;28;20077;-72
2022/12/19 02:49:01;;;;;;;53.13;23.63;;;-3.70;99.90;;;;;;2087661;28;20104;-72
2022/12/19 02:50:03;;;;;;;49.20;23.95;;;-3.70;99.90;;;;;;2087135;28;20040;-71
2022/12/19 02:51:04;;;;;;;50.80;23.58;;;-3.70;99.90;;;;;;2095602;28;20060;-72
2022/12/19 02:52:08;;;;;;;48.50;23.27;;;-3.70;99.90;;;;;;2095485;28;20029;-72
2022/12/19 02:53:11;;;;;;;48.42;22.98;;;-3.70;99.90;;;;;;2103737;28;20016;-72
2022/12/19 02:54:12;;;;;;;50.95;23.10;;;-3.70;99.90;;;;;;2103774;28;20024;-72
2022/12/19 02:55:19;;;;;;;48.38;23.02;;;-3.70;99.90;;;;;;2095439;28;20056;-72
2022/12/19 02:57:00;;;;;;;48.42;22.05;;;-3.70;99.90;;;;;;2096196;28;20036;-72
2022/12/19 02:58:30;;;;;;;49.00;22.73;;;-3.60;99.90;;;;;;2102149;28;20036;-72
2022/12/19 02:59:40;;;;;;;47.47;21.55;;;-3.60;99.90;;;;;;2107960;28;20031;-72
2022/12/19 03:01:04;;;;;;;50.13;22.25;;;-3.60;99.90;;;;;;2103803;28;20412;-75
2022/12/19 03:02:42;;;;;;;52.28;22.60;;;-3.60;99.90;;;;;;2101781;28;20511;-73
2022/12/19 03:04:09;;;;;;;51.15;22.58;;;-3.60;99.90;;;;;;2109170;28;20066;-72
2022/12/19 03:05:23;;;;;;;53.10;22.83;;;-3.60;99.90;;;;;;2109620;28;20090;-72
2022/12/19 03:06:41;;;;;;;50.25;22.40;;;-3.60;99.90;;;;;;2110410;28;20027;-72
2022/12/19 03:07:54;;;;;;;52.55;22.83;;;-3.60;99.90;;;;;;2116327;28;20043;-72
2022/12/19 03:09:01;;;;;;;51.60;23.38;;;-3.50;99.90;;;;;;2109405;28;20024;-72
2022/12/19 03:10:50;;;;;;;49.05;22.88;;;-3.50;99.90;;;;;;2116346;28;20486;-73
2022/12/19 03:11:58;;;;;;;49.33;21.60;;;-3.50;99.90;;;;;;2079758;28;20026;-72
2022/12/19 03:13:02;;;;;;;52.53;22.40;;;-3.50;99.90;;;;;;2086975;28;20128;-72
2022/12/19 03:14:07;;;;;;;52.33;23.33;;;-3.50;99.90;;;;;;2099586;28;20029;-72
2022/12/19 03:15:08;;;;;;;54.58;23.73;;;-3.50;99.90;;;;;;2098416;28;20513;-72
2022/12/19 03:16:11;;;;;;;52.75;24.35;;;-3.50;99.90;;;;;;2105220;28;20031;-72
2022/12/19 03:17:12;;;;;;;53.60;24.23;;;-3.50;99.90;;;;;;2096877;28;20522;-73
2022/12/19 03:18:13;;;;;;;54.40;23.92;;;-3.50;99.90;;;;;;2098835;28;20028;-72
2022/12/19 03:19:14;;;;;;;53.78;23.77;;;-3.40;99.90;;;;;;2113472;28;20023;-72
2022/12/19 03:20:24;;;;;;;54.30;23.80;;;-3.40;99.90;;;;;;2098988;28;20128;-72
2022/12/19 03:21:47;;;;;;;50.58;23.05;;;-3.40;99.90;;;;;;2096807;28;20066;-72
2022/12/19 03:22:47;;;;;;;54.70;23.10;;;-3.40;99.90;;;;;;2096733;28;20021;-72
2022/12/19 03:23:51;;;;;;;52.95;23.45;;;-3.40;99.90;;;;;;2097409;28;20043;-74
2022/12/19 03:24:52;;;;;;;52.10;23.80;;;-3.40;99.90;;;;;;2105152;28;20078;-73
2022/12/19 03:25:56;;;;;;;53.22;23.88;;;-3.40;99.90;;;;;;2096626;28;20499;-74
2022/12/19 03:27:32;;;;;;;55.08;23.55;;;-3.40;99.90;;;;;;2097719;28;20443;-74
2022/12/19 03:28:57;;;;;;;52.60;23.25;;;-3.30;99.90;;;;;;2080423;28;20033;-73
2022/12/19 03:30:06;;;;;;;50.60;21.92;;;-3.30;99.90;;;;;;2097454;28;20037;-73
2022/12/19 03:31:09;;;;;;;56.10;24.38;;;-3.40;99.90;;;;;;2097213;28;20046;-73
2022/12/19 03:32:13;;;;;;;54.17;24.33;;;-3.30;99.90;;;;;;2096641;28;20104;-73
2022/12/19 03:33:17;;;;;;;55.28;24.42;;;-3.30;99.90;;;;;;2096551;28;20840;-73
2022/12/19 03:34:34;;;;;;;53.17;23.48;;;-3.30;99.90;;;;;;2097197;28;20044;-73
2022/12/19 03:35:36;;;;;;;57.17;24.75;;;-3.30;99.90;;;;;;2097441;28;20036;-73
2022/12/19 03:36:44;;;;;;;55.75;24.17;;;-3.30;99.90;;;;;;2097235;28;20028;-73
2022/12/19 03:37:48;;;;;;;55.15;23.98;;;-3.30;99.90;;;;;;2097341;28;20506;-73
2022/12/19 03:38:49;;;;;;;58.67;25.83;;;-3.30;99.90;;;;;;2097262;28;20032;-73
2022/12/19 03:39:53;;;;;;;56.78;25.33;;;-3.30;99.90;;;;;;2097143;28;20388;-73
2022/12/19 03:40:55;;;;;;;60.03;25.80;;;-3.30;99.90;;;;;;2096942;28;20482;-73
2022/12/19 03:43:33;;;;;;;53.70;23.77;;;-3.20;99.90;;;;;;2086000;28;20045;-73
2022/12/19 03:44:37;;;;;;;59.03;24.85;;;-3.20;99.90;;;;;;2098954;28;20043;-74
2022/12/19 03:46:05;;;;;;;54.95;24.65;;;-3.20;99.90;;;;;;2093366;28;20035;-73
2022/12/19 03:47:14;;;;;;;53.85;23.85;;;-3.20;99.90;;;;;;2087609;28;20067;-73
2022/12/19 03:48:14;;;;;;;55.58;23.13;;;-3.20;99.90;;;;;;2089130;28;20053;-73
2022/12/19 03:49:15;;;;;;;58.08;24.52;;;-3.20;99.90;;;;;;2096498;28;20040;-73
2022/12/19 03:50:16;;;;;;;53.50;23.60;;;-3.20;99.90;;;;;;2096998;28;20103;-73
2022/12/19 03:51:32;;;;;;;54.78;25.23;;;-3.20;99.90;;;;;;2097055;28;20130;-73
2022/12/19 03:52:38;;;;;;;54.33;23.77;;;-3.20;99.90;;;;;;2096916;28;20021;-73
2022/12/19 03:53:56;;;;;;;53.85;23.75;;;-3.10;99.90;;;;;;2096706;28;20020;-73
2022/12/19 03:55:04;;;;;;;57.05;24.63;;;-3.10;99.90;;;;;;2096968;28;20033;-73
2022/12/19 03:56:14;;;;;;;52.03;23.63;;;-3.10;99.90;;;;;;2096990;28;20032;-73
2022/12/19 03:57:19;;;;;;;;;;;-3.10;99.90;;;;;;2097738;28;20032;-73
2022/12/19 03:58:29;;;;;;;54.08;23.08;;;-3.10;99.90;;;;;;2096903;28;19912;-73
2022/12/19 03:59:32;;;;;;;54.97;24.02;;;-3.10;99.90;;;;;;2096974;28;20097;-73
2022/12/19 04:00:35;;;;;;;57.30;25.65;;;-3.10;99.90;;;;;;2096870;28;20020;-73
2022/12/19 04:01:37;;;;;;;57.97;23.92;;;-3.10;99.90;;;;;;2096850;28;20651;-73
2022/12/19 04:02:43;;;;;;;53.65;23.80;;;-3.00;99.90;;;;;;2096865;28;20055;-73
2022/12/19 04:03:44;;;;;;;57.15;25.08;;;-3.00;99.90;;;;;;2096671;28;20060;-74
2022/12/19 04:04:49;;;;;;;52.78;23.63;;;-3.00;99.90;;;;;;2096839;28;20032;-73
2022/12/19 04:05:52;;;;;;;56.78;24.85;;;-3.00;99.90;;;;;;2104528;28;20094;-73
2022/12/19 04:06:54;;;;;;;55.45;25.23;;;-3.00;99.90;;;;;;2104361;28;20035;-72
2022/12/19 04:08:02;;;;;;;58.42;25.92;;;-3.00;99.90;;;;;;2096899;28;20016;-73
2022/12/19 04:09:04;;;;;;;54.83;24.85;;;-3.00;99.90;;;;;;2096950;28;20024;-73
2022/12/19 04:10:09;;;;;;;56.25;24.08;;;-2.90;99.90;;;;;;2104810;28;20028;-72
2022/12/19 04:11:19;;;;;;;55.83;25.98;;;-2.90;99.90;;;;;;2105022;28;20032;-72
2022/12/19 04:12:25;;;;;;;55.35;24.92;;;-2.90;99.90;;;;;;2104248;28;20085;-73
2022/12/19 04:13:40;;;;;;;56.78;24.88;;;-2.90;99.90;;;;;;2104418;28;20028;-72
2022/12/19 04:14:41;;;;;;;60.17;25.92;;;-2.90;99.90;;;;;;2104833;28;20035;-72
2022/12/19 04:16:06;;;;;;;60.67;26.00;;;-2.90;99.90;;;;;;2104274;28;20028;-73
2022/12/19 04:17:12;;;;;;;58.10;26.35;;;-2.90;99.90;;;;;;2097468;28;20044;-73
2022/12/19 04:18:14;;;;;;;60.35;26.42;;;-2.90;99.90;;;;;;2104575;28;20028;-72
2022/12/19 04:19:24;;;;;;;63.47;27.70;;;-2.90;99.90;;;;;;2105187;28;20085;-72
2022/12/19 04:20:26;;;;;;;61.65;27.05;;;-2.90;99.90;;;;;;2095899;28;20595;-72
2022/12/19 04:21:37;;;;;;;62.08;27.45;;;-2.90;99.90;;;;;;2096168;28;20055;-73
2022/12/19 04:22:58;;;;;;;62.60;26.58;;;-2.90;99.90;;;;;;2096886;28;20469;-72
2022/12/19 04:24:09;;;;;;;56.03;24.88;;;-2.90;99.90;;;;;;2096779;28;20028;-72
2022/12/19 04:25:13;;;;;;;65.15;28.10;;;-2.80;99.90;;;;;;2096757;28;20040;-72
2022/12/19 04:26:17;;;;;;;59.42;26.73;;;-2.80;99.90;;;;;;2096778;28;20028;-72
2022/12/19 04:27:20;;;;;;;94.15;42.88;;;-2.80;99.90;;;;;;2096705;28;20397;-72
2022/12/19 04:28:25;;;;;;;62.15;27.17;;;-2.80;99.90;;;;;;2095904;28;20038;-73
2022/12/19 04:29:27;;;;;;;61.30;26.65;;;-2.80;99.90;;;;;;2096193;28;20036;-72
2022/12/19 04:30:28;;;;;;;60.25;28.38;;;-2.80;99.90;;;;;;2096623;28;20052;-73
2022/12/19 04:31:30;;;;;;;58.53;26.33;;;-2.80;99.90;;;;;;2096741;28;20033;-72
2022/12/19 04:32:34;;;;;;;57.83;25.77;;;-2.80;99.90;;;;;;2096856;28;20040;-73
2022/12/19 04:33:35;;;;;;;60.75;26.23;;;-2.80;99.90;;;;;;2096875;28;20115;-73
2022/12/19 04:34:35;;;;;;;57.90;25.52;;;-2.70;99.90;;;;;;2097123;28;20017;-72
2022/12/19 04:35:36;;;;;;;62.28;26.58;;;-2.70;99.90;;;;;;2097951;28;20802;-73
2022/12/19 04:36:37;;;;;;;60.50;26.92;;;-2.70;99.90;;;;;;2097502;28;20797;-73
2022/12/19 04:37:39;;;;;;;58.47;25.98;;;-2.70;99.90;;;;;;2097683;28;20036;-73
2022/12/19 04:38:39;;;;;;;61.38;27.80;;;-2.70;99.90;;;;;;2097812;28;20604;-73
2022/12/19 04:39:40;;;;;;;64.50;27.83;;;-2.70;99.90;;;;;;2098209;28;20067;-73
2022/12/19 04:40:40;;;;;;;63.20;27.75;;;-2.70;99.90;;;;;;2097814;28;20036;-71
2022/12/19 04:41:41;;;;;;;62.20;26.75;;;-2.70;99.90;;;;;;2096948;28;20029;-72
2022/12/19 04:42:42;;;;;;;62.03;27.13;;;-2.70;99.90;;;;;;2097253;28;20024;-72
2022/12/19 04:43:43;;;;;;;59.67;27.70;;;-2.70;99.90;;;;;;2097512;28;20055;-72
2022/12/19 04:44:43;;;;;;;59.60;27.00;;;-2.70;99.90;;;;;;2098018;28;20489;-72
2022/12/19 04:45:44;;;;;;;58.08;26.52;;;-2.70;99.90;;;;;;2098409;28;20028;-72
2022/12/19 04:46:45;;;;;;;63.33;28.30;;;-2.70;99.90;;;;;;2098172;28;20487;-73
2022/12/19 04:47:46;;;;;;;59.28;26.48;;;-2.70;99.90;;;;;;2097571;28;20048;-72
2022/12/19 04:48:46;;;;;;;64.05;28.02;;;-2.70;99.90;;;;;;2097606;28;20023;-72
2022/12/19 04:49:47;;;;;;;63.38;27.98;;;-2.70;99.90;;;;;;2098445;28;20059;-72
2022/12/19 04:50:48;;;;;;;62.22;27.20;;;-2.70;99.90;;;;;;2098019;28;20029;-73
2022/12/19 04:51:48;;;;;;;62.58;27.83;;;-2.70;99.90;;;;;;2096392;28;20039;-72
2022/12/19 04:52:49;;;;;;;66.90;27.50;;;-2.70;99.90;;;;;;2096085;28;20106;-73
2022/12/19 04:53:49;;;;;;;63.40;28.42;;;-2.70;99.90;;;;;;2097363;28;20040;-73
2022/12/19 04:54:50;;;;;;;65.70;28.70;;;-2.70;99.90;;;;;;2100510;28;20039;-73
2022/12/19 04:56:03;;;;;;;63.88;28.23;;;-2.70;99.90;;;;;;2099196;28;20048;-73
2022/12/19 04:57:04;;;;;;;65.78;28.02;;;-2.70;99.90;;;;;;2107300;28;20031;-73
2022/12/19 04:58:05;;;;;;;65.57;28.48;;;-2.70;99.90;;;;;;2111599;27;20081;-73
2022/12/19 04:59:06;;;;;;;65.13;28.15;;;-2.70;99.90;;;;;;2116346;28;20039;-75
2022/12/19 05:00:08;;;;;;;64.78;29.45;;;-2.70;99.90;;;;;;2115453;28;20051;-72
2022/12/19 05:01:09;;;;;;;67.28;29.30;;;-2.70;99.90;;;;;;2115982;28;20015;-73
2022/12/19 05:02:09;;;;;;;65.10;27.42;;;-2.70;99.90;;;;;;2115512;28;20115;-73
2022/12/19 05:03:10;;;;;;;65.47;28.70;;;-2.70;99.90;;;;;;2113963;28;20039;-72
2022/12/19 05:04:11;;;;;;;63.08;28.25;;;-2.70;99.90;;;;;;2113526;28;20049;-73
2022/12/19 05:05:12;;;;;;;68.47;29.45;;;-2.70;99.90;;;;;;2113599;28;20035;-72
2022/12/19 05:06:13;;;;;;;64.53;28.35;;;-2.70;99.90;;;;;;2106218;28;20132;-73
2022/12/19 05:07:14;;;;;;;64.38;27.85;;;-2.70;99.90;;;;;;2095936;28;20467;-73
2022/12/19 05:08:14;;;;;;;64.65;28.45;;;-2.70;99.90;;;;;;2096095;28;20112;-73
2022/12/19 05:09:16;;;;;;;68.03;29.80;;;-2.70;99.90;;;;;;2105035;28;20032;-73
2022/12/19 05:10:17;;;;;;;67.75;29.40;;;-2.70;99.90;;;;;;2104414;28;20024;-72
2022/12/19 05:11:18;;;;;;;67.65;29.83;;;-2.70;99.90;;;;;;2095975;28;20063;-73
2022/12/19 05:12:18;;;;;;;66.07;28.75;;;-2.70;99.90;;;;;;2104151;28;20557;-73
2022/12/19 05:13:19;;;;;;;69.60;29.55;;;-2.70;99.90;;;;;;2103759;28;20050;-73
2022/12/19 05:14:20;;;;;;;63.50;28.38;;;-2.70;99.90;;;;;;2095777;28;20031;-72
2022/12/19 05:15:20;;;;;;;71.15;29.73;;;-2.70;99.90;;;;;;2104278;28;20032;-72
2022/12/19 05:16:21;;;;;;;63.85;28.15;;;-2.70;99.90;;;;;;2104705;28;20059;-73
2022/12/19 05:17:22;;;;;;;65.30;29.33;;;-2.60;99.90;;;;;;2104209;28;20177;-73
2022/12/19 05:18:23;;;;;;;69.30;30.00;;;-2.60;99.90;;;;;;2104284;28;20111;-73
2022/12/19 05:19:24;;;;;;;67.70;30.23;;;-2.70;99.90;;;;;;2104870;28;20525;-73
2022/12/19 05:20:24;;;;;;;68.60;29.90;;;-2.60;99.90;;;;;;2104781;28;20028;-73
2022/12/19 05:21:25;;;;;;;68.47;30.00;;;-2.70;99.90;;;;;;2104892;28;20084;-73
2022/12/19 05:22:26;;;;;;;68.97;29.45;;;-2.60;99.90;;;;;;2104756;28;20086;-73
2022/12/19 05:23:27;;;;;;;66.93;29.80;;;-2.60;99.90;;;;;;2104640;28;20023;-75
2022/12/19 05:24:28;;;;;;;67.03;29.50;;;-2.60;99.90;;;;;;2104302;28;20032;-72
2022/12/19 05:25:28;;;;;;;67.25;29.50;;;-2.70;99.90;;;;;;2104297;28;20027;-73
2022/12/19 05:26:29;;;;;;;66.95;30.55;;;-2.70;99.90;;;;;;2104182;28;20035;-73
2022/12/19 05:27:30;;;;;;;66.22;30.20;;;-2.60;99.90;;;;;;2104129;28;20461;-72
2022/12/19 05:28:31;;;;;;;70.57;29.88;;;-2.70;99.90;;;;;;2104152;28;20024;-72
2022/12/19 05:29:32;;;;;;;68.28;30.13;;;-2.70;99.90;;;;;;2104785;28;20032;-73
2022/12/19 05:30:32;;;;;;;64.80;29.55;;;-2.60;99.90;;;;;;2103962;28;20036;-74
2022/12/19 05:31:33;;;;;;;68.68;30.95;;;-2.70;99.90;;;;;;2104174;28;20078;-74
2022/12/19 05:32:34;;;;;;;71.70;31.83;;;-2.70;99.90;;;;;;2104631;28;20115;-74
2022/12/19 05:33:36;;;;;;;75.00;34.40;;;-2.60;99.90;;;;;;2104542;28;20047;-73
2022/12/19 05:34:37;;;;;;;72.63;33.30;;;-2.70;99.90;;;;;;2105051;28;20032;-74
2022/12/19 05:35:38;;;;;;;71.25;31.52;;;-2.70;99.90;;;;;;2104233;28;20032;-75